sensor_id;sensor_type;location;lat;lon;timestamp;temperature;humidity
47521;DHT22;32291;52.010;4.446;2022-09-12T00:00:21;15.30;99.90
47521;DHT22;32291;52.010;4.446;2022-09-12T00:01:25;15.30;99.90
47521;DHT22;32291;52.010;4.446;2022-09-12T00:02:28;15.30;99.90
47521;DHT22;32291;52.010;4.446;2022-09-12T00:03:32;15.30;99.90
47521;DHT22;32291;52.010;4.446;2022-09-12T00:04:35;15.30;99.90
47521;DHT22;32291;52.010;4.446;2022-09-12T00:05:44;15.30;99.90
47521;DHT22;32291;52.010;4.446;2022-09-12T00:06:48;15.30;99.90
47521;DHT22;32291;52.010;4.446;2022-09-12T00:07:51;15.30;99.90
47521;DHT22;32291;52.010;4.446;2022-09-12T00:08:55;15.30;99.90
47521;DHT22;32291;52.010;4.446;2022-09-12T00:10:03;15.30;99.90
47521;DHT22;32291;52.010;4.446;2022-09-12T00:11:09;15.30;99.90
47521;DHT22;32291;52.010;4.446;2022-09-12T00:12:14;15.30;99.90
47521;DHT22;32291;52.010;4.446;2022-09-12T00:13:18;15.30;99.90
47521;DHT22;32291;52.010;4.446;2022-09-12T00:14:20;15.30;99.90
47521;DHT22;32291;52.010;4.446;2022-09-12T00:15:24;15.30;99.90
47521;DHT22;32291;52.010;4.446;2022-09-12T00:16:29;15.30;99.90
47521;DHT22;32291;52.010;4.446;2022-09-12T00:17:39;15.30;99.90
47521;DHT22;32291;52.010;4.446;2022-09-12T00:18:45;15.30;99.90
47521;DHT22;32291;52.010;4.446;2022-09-12T00:19:50;16.30;99.90
47521;DHT22;32291;52.010;4.446;2022-09-12T00:20:56;15.20;99.90
47521;DHT22;32291;52.010;4.446;2022-09-12T00:22:04;15.30;99.90
47521;DHT22;32291;52.010;4.446;2022-09-12T00:23:08;15.20;99.90
47521;DHT22;32291;52.010;4.446;2022-09-12T00:24:13;15.20;99.90
47521;DHT22;32291;52.010;4.446;2022-09-12T00:25:16;15.20;99.90
47521;DHT22;32291;52.010;4.446;2022-09-12T00:26:20;15.20;99.90
47521;DHT22;32291;52.010;4.446;2022-09-12T00:27:26;15.20;99.90
47521;DHT22;32291;52.010;4.446;2022-09-12T00:28:30;15.20;99.90
47521;DHT22;32291;52.010;4.446;2022-09-12T00:29:37;15.20;99.90
47521;DHT22;32291;52.010;4.446;2022-09-12T00:30:42;15.20;99.90
47521;DHT22;32291;52.010;4.446;2022-09-12T00:31:48;15.10;99.90
47521;DHT22;32291;52.010;4.446;2022-09-12T00:32:51;15.20;99.90
47521;DHT22;32291;52.010;4.446;2022-09-12T00:33:59;15.10;99.90
47521;DHT22;32291;52.010;4.446;2022-09-12T00:35:03;14.50;99.90
47521;DHT22;32291;52.010;4.446;2022-09-12T00:36:09;15.10;99.90
47521;DHT22;32291;52.010;4.446;2022-09-12T00:37:17;15.10;99.90
47521;DHT22;32291;52.010;4.446;2022-09-12T00:38:20;15.10;99.90
47521;DHT22;32291;52.010;4.446;2022-09-12T00:39:24;15.10;99.90
47521;DHT22;32291;52.010;4.446;2022-09-12T00:40:26;15.10;99.90
47521;DHT22;32291;52.010;4.446;2022-09-12T00:41:37;15.10;99.90
47521;DHT22;32291;52.010;4.446;2022-09-12T00:42:40;15.10;99.90
47521;DHT22;32291;52.010;4.446;2022-09-12T00:43:55;15.10;99.90
47521;DHT22;32291;52.010;4.446;2022-09-12T00:45:19;15.10;99.90
47521;DHT22;32291;52.010;4.446;2022-09-12T00:48:19;15.20;99.90
47521;DHT22;32291;52.010;4.446;2022-09-12T00:49:50;15.10;99.90
47521;DHT22;32291;52.010;4.446;2022-09-12T00:51:29;15.10;99.90
47521;DHT22;32291;52.010;4.446;2022-09-12T00:52:44;15.10;99.90
47521;DHT22;32291;52.010;4.446;2022-09-12T00:53:53;15.10;99.90
47521;DHT22;32291;52.010;4.446;2022-09-12T00:56:19;15.10;99.90
47521;DHT22;32291;52.010;4.446;2022-09-12T00:57:30;15.10;99.90
47521;DHT22;32291;52.010;4.446;2022-09-12T00:58:43;15.10;99.90
47521;DHT22;32291;52.010;4.446;2022-09-12T01:00:12;15.10;99.90
47521;DHT22;32291;52.010;4.446;2022-09-12T01:01:21;15.10;99.90
47521;DHT22;32291;52.010;4.446;2022-09-12T01:02:26;15.10;99.90
47521;DHT22;32291;52.010;4.446;2022-09-12T01:03:30;15.10;99.90
47521;DHT22;32291;52.010;4.446;2022-09-12T01:04:35;15.10;99.90
47521;DHT22;32291;52.010;4.446;2022-09-12T01:07:06;15.10;99.90
47521;DHT22;32291;52.010;4.446;2022-09-12T01:08:15;15.10;99.90
47521;DHT22;32291;52.010;4.446;2022-09-12T01:09:21;15.10;99.90
47521;DHT22;32291;52.010;4.446;2022-09-12T01:10:25;15.10;99.90
47521;DHT22;32291;52.010;4.446;2022-09-12T01:11:28;15.10;99.90
47521;DHT22;32291;52.010;4.446;2022-09-12T01:12:38;15.10;99.90
47521;DHT22;32291;52.010;4.446;2022-09-12T01:13:45;15.10;99.90
47521;DHT22;32291;52.010;4.446;2022-09-12T01:14:51;15.10;99.90
47521;DHT22;32291;52.010;4.446;2022-09-12T01:15:54;16.20;99.90
47521;DHT22;32291;52.010;4.446;2022-09-12T01:16:57;15.10;99.90
47521;DHT22;32291;52.010;4.446;2022-09-12T01:19:39;15.00;99.90
47521;DHT22;32291;52.010;4.446;2022-09-12T01:31:04;15.10;99.90
47521;DHT22;32291;52.010;4.446;2022-09-12T01:33:24;15.00;99.90
47521;DHT22;32291;52.010;4.446;2022-09-12T01:37:41;15.00;99.90
47521;DHT22;32291;52.010;4.446;2022-09-12T01:40:39;15.00;99.90
47521;DHT22;32291;52.010;4.446;2022-09-12T01:44:01;14.90;99.90
47521;DHT22;32291;52.010;4.446;2022-09-12T01:45:40;14.90;99.90
47521;DHT22;32291;52.010;4.446;2022-09-12T01:47:15;15.10;99.90
47521;DHT22;32291;52.010;4.446;2022-09-12T01:49:22;14.90;99.90
47521;DHT22;32291;52.010;4.446;2022-09-12T01:50:36;14.90;99.90
47521;DHT22;32291;52.010;4.446;2022-09-12T01:52:24;14.90;99.90
47521;DHT22;32291;52.010;4.446;2022-09-12T01:54:22;14.90;99.90
47521;DHT22;32291;52.010;4.446;2022-09-12T01:55:54;14.90;99.90
47521;DHT22;32291;52.010;4.446;2022-09-12T01:57:13;14.90;99.90
47521;DHT22;32291;52.010;4.446;2022-09-12T01:58:41;14.90;99.90
47521;DHT22;32291;52.010;4.446;2022-09-12T01:59:59;14.90;99.90
47521;DHT22;32291;52.010;4.446;2022-09-12T02:01:21;14.80;99.90
47521;DHT22;32291;52.010;4.446;2022-09-12T02:07:15;14.90;99.90
47521;DHT22;32291;52.010;4.446;2022-09-12T02:08:32;14.80;99.90
47521;DHT22;32291;52.010;4.446;2022-09-12T02:11:19;14.80;99.90
47521;DHT22;32291;52.010;4.446;2022-09-12T02:12:28;14.80;99.90
47521;DHT22;32291;52.010;4.446;2022-09-12T02:13:54;14.80;99.90
47521;DHT22;32291;52.010;4.446;2022-09-12T02:15:07;14.80;99.90
47521;DHT22;32291;52.010;4.446;2022-09-12T02:16:44;14.80;99.90
47521;DHT22;32291;52.010;4.446;2022-09-12T02:17:54;14.80;99.90
47521;DHT22;32291;52.010;4.446;2022-09-12T02:19:09;14.80;99.90
47521;DHT22;32291;52.010;4.446;2022-09-12T02:20:33;14.80;99.90
47521;DHT22;32291;52.010;4.446;2022-09-12T02:21:45;14.80;99.90
47521;DHT22;32291;52.010;4.446;2022-09-12T02:23:03;13.70;99.90
47521;DHT22;32291;52.010;4.446;2022-09-12T02:24:14;14.80;99.90
47521;DHT22;32291;52.010;4.446;2022-09-12T02:25:19;14.80;99.90
47521;DHT22;32291;52.010;4.446;2022-09-12T02:26:36;14.80;99.90
47521;DHT22;32291;52.010;4.446;2022-09-12T02:28:05;14.80;99.90
47521;DHT22;32291;52.010;4.446;2022-09-12T02:29:35;14.80;99.90
47521;DHT22;32291;52.010;4.446;2022-09-12T02:30:58;14.90;99.90
47521;DHT22;32291;52.010;4.446;2022-09-12T02:33:47;14.90;99.90
47521;DHT22;32291;52.010;4.446;2022-09-12T02:37:10;14.90;99.90
47521;DHT22;32291;52.010;4.446;2022-09-12T02:38:47;15.00;99.90
47521;DHT22;32291;52.010;4.446;2022-09-12T02:40:00;15.00;99.90
47521;DHT22;32291;52.010;4.446;2022-09-12T02:41:03;15.00;99.90
47521;DHT22;32291;52.010;4.446;2022-09-12T02:42:09;15.00;99.90
47521;DHT22;32291;52.010;4.446;2022-09-12T02:43:13;15.00;99.90
47521;DHT22;32291;52.010;4.446;2022-09-12T02:44:17;14.90;99.90
47521;DHT22;32291;52.010;4.446;2022-09-12T02:45:21;15.00;99.90
47521;DHT22;32291;52.010;4.446;2022-09-12T02:46:30;15.00;99.90
47521;DHT22;32291;52.010;4.446;2022-09-12T02:48:12;15.00;99.90
47521;DHT22;32291;52.010;4.446;2022-09-12T02:49:25;15.00;99.90
47521;DHT22;32291;52.010;4.446;2022-09-12T02:50:28;15.00;99.90
47521;DHT22;32291;52.010;4.446;2022-09-12T02:51:32;15.00;99.90
47521;DHT22;32291;52.010;4.446;2022-09-12T02:52:35;15.00;99.90
47521;DHT22;32291;52.010;4.446;2022-09-12T02:53:39;15.00;99.90
47521;DHT22;32291;52.010;4.446;2022-09-12T02:54:44;15.10;99.90
47521;DHT22;32291;52.010;4.446;2022-09-12T02:55:47;15.10;99.90
47521;DHT22;32291;52.010;4.446;2022-09-12T02:56:52;15.00;99.90
47521;DHT22;32291;52.010;4.446;2022-09-12T02:57:54;15.10;99.90
47521;DHT22;32291;52.010;4.446;2022-09-12T02:59:04;15.10;99.90
47521;DHT22;32291;52.010;4.446;2022-09-12T03:00:20;15.70;99.90
47521;DHT22;32291;52.010;4.446;2022-09-12T03:08:55;14.60;99.90
47521;DHT22;32291;52.010;4.446;2022-09-12T03:10:27;14.30;99.90
47521;DHT22;32291;52.010;4.446;2022-09-12T03:12:01;15.20;99.90
47521;DHT22;32291;52.010;4.446;2022-09-12T03:22:52;15.30;99.90
47521;DHT22;32291;52.010;4.446;2022-09-12T03:24:35;15.30;99.90
47521;DHT22;32291;52.010;4.446;2022-09-12T03:26:27;15.50;99.90
47521;DHT22;32291;52.010;4.446;2022-09-12T03:28:07;15.30;99.90
47521;DHT22;32291;52.010;4.446;2022-09-12T03:29:19;15.30;99.90
47521;DHT22;32291;52.010;4.446;2022-09-12T03:30:26;15.30;99.90
47521;DHT22;32291;52.010;4.446;2022-09-12T03:31:32;15.40;99.90
47521;DHT22;32291;52.010;4.446;2022-09-12T03:32:45;15.30;99.90
47521;DHT22;32291;52.010;4.446;2022-09-12T03:33:52;15.50;99.90
47521;DHT22;32291;52.010;4.446;2022-09-12T03:34:56;15.40;99.90
47521;DHT22;32291;52.010;4.446;2022-09-12T03:36:00;15.40;99.90
47521;DHT22;32291;52.010;4.446;2022-09-12T03:37:02;15.40;99.90
47521;DHT22;32291;52.010;4.446;2022-09-12T03:38:05;15.30;99.90
47521;DHT22;32291;52.010;4.446;2022-09-12T03:39:16;15.40;99.90
47521;DHT22;32291;52.010;4.446;2022-09-12T03:40:19;15.30;99.90
47521;DHT22;32291;52.010;4.446;2022-09-12T03:41:22;15.30;99.90
47521;DHT22;32291;52.010;4.446;2022-09-12T03:42:26;15.30;99.90
47521;DHT22;32291;52.010;4.446;2022-09-12T03:43:28;15.30;99.90
47521;DHT22;32291;52.010;4.446;2022-09-12T03:44:31;15.30;99.90
47521;DHT22;32291;52.010;4.446;2022-09-12T03:45:34;15.30;99.90
47521;DHT22;32291;52.010;4.446;2022-09-12T03:46:43;15.30;99.90
47521;DHT22;32291;52.010;4.446;2022-09-12T03:47:46;15.30;99.90
47521;DHT22;32291;52.010;4.446;2022-09-12T03:48:50;15.40;99.90
47521;DHT22;32291;52.010;4.446;2022-09-12T03:49:54;15.40;99.90
47521;DHT22;32291;52.010;4.446;2022-09-12T03:51:02;15.40;99.90
47521;DHT22;32291;52.010;4.446;2022-09-12T03:52:12;15.40;99.90
47521;DHT22;32291;52.010;4.446;2022-09-12T03:53:15;15.40;99.90
47521;DHT22;32291;52.010;4.446;2022-09-12T03:54:18;15.30;99.90
47521;DHT22;32291;52.010;4.446;2022-09-12T03:55:20;15.80;99.90
47521;DHT22;32291;52.010;4.446;2022-09-12T03:56:23;15.40;99.90
47521;DHT22;32291;52.010;4.446;2022-09-12T03:57:26;15.40;99.90
47521;DHT22;32291;52.010;4.446;2022-09-12T03:58:32;15.40;99.90
47521;DHT22;32291;52.010;4.446;2022-09-12T03:59:37;15.30;99.90
47521;DHT22;32291;52.010;4.446;2022-09-12T04:00:40;15.40;99.90
47521;DHT22;32291;52.010;4.446;2022-09-12T04:01:43;15.40;99.90
47521;DHT22;32291;52.010;4.446;2022-09-12T04:02:47;15.40;99.90
47521;DHT22;32291;52.010;4.446;2022-09-12T04:03:55;15.40;99.90
47521;DHT22;32291;52.010;4.446;2022-09-12T04:05:00;15.40;99.90
47521;DHT22;32291;52.010;4.446;2022-09-12T04:06:03;15.40;99.90
47521;DHT22;32291;52.010;4.446;2022-09-12T04:07:07;15.30;99.90
47521;DHT22;32291;52.010;4.446;2022-09-12T04:08:12;15.40;99.90
47521;DHT22;32291;52.010;4.446;2022-09-12T04:09:14;15.40;99.90
47521;DHT22;32291;52.010;4.446;2022-09-12T04:10:17;15.30;99.90
47521;DHT22;32291;52.010;4.446;2022-09-12T04:11:21;15.40;99.90
47521;DHT22;32291;52.010;4.446;2022-09-12T04:12:28;15.30;99.90
47521;DHT22;32291;52.010;4.446;2022-09-12T04:13:31;15.30;99.90
47521;DHT22;32291;52.010;4.446;2022-09-12T04:14:33;15.30;99.90
47521;DHT22;32291;52.010;4.446;2022-09-12T04:15:36;15.30;99.90
47521;DHT22;32291;52.010;4.446;2022-09-12T04:16:47;15.30;99.90
47521;DHT22;32291;52.010;4.446;2022-09-12T04:17:49;15.30;99.90
47521;DHT22;32291;52.010;4.446;2022-09-12T04:18:53;15.30;99.90
47521;DHT22;32291;52.010;4.446;2022-09-12T04:19:55;15.30;99.90
47521;DHT22;32291;52.010;4.446;2022-09-12T04:21:08;15.30;99.90
47521;DHT22;32291;52.010;4.446;2022-09-12T04:22:23;15.20;99.90
47521;DHT22;32291;52.010;4.446;2022-09-12T04:23:32;15.30;99.90
47521;DHT22;32291;52.010;4.446;2022-09-12T04:24:36;15.30;99.90
47521;DHT22;32291;52.010;4.446;2022-09-12T04:25:43;15.30;99.90
47521;DHT22;32291;52.010;4.446;2022-09-12T04:26:46;15.30;99.90
47521;DHT22;32291;52.010;4.446;2022-09-12T04:27:49;15.30;99.90
47521;DHT22;32291;52.010;4.446;2022-09-12T04:28:54;15.30;99.90
47521;DHT22;32291;52.010;4.446;2022-09-12T04:30:10;16.10;99.90
47521;DHT22;32291;52.010;4.446;2022-09-12T04:31:16;15.30;99.90
47521;DHT22;32291;52.010;4.446;2022-09-12T04:32:21;15.20;99.90
47521;DHT22;32291;52.010;4.446;2022-09-12T04:33:25;15.00;99.90
47521;DHT22;32291;52.010;4.446;2022-09-12T04:34:31;15.20;99.90
47521;DHT22;32291;52.010;4.446;2022-09-12T04:35:36;15.20;99.90
47521;DHT22;32291;52.010;4.446;2022-09-12T04:36:47;15.10;99.90
47521;DHT22;32291;52.010;4.446;2022-09-12T04:37:49;15.20;99.90
47521;DHT22;32291;52.010;4.446;2022-09-12T04:38:54;15.20;99.90
47521;DHT22;32291;52.010;4.446;2022-09-12T04:39:59;15.10;99.90
47521;DHT22;32291;52.010;4.446;2022-09-12T04:41:13;15.10;99.90
47521;DHT22;32291;52.010;4.446;2022-09-12T04:42:25;15.10;99.90
47521;DHT22;32291;52.010;4.446;2022-09-12T04:43:30;15.10;99.90
47521;DHT22;32291;52.010;4.446;2022-09-12T04:44:33;15.00;99.90
47521;DHT22;32291;52.010;4.446;2022-09-12T04:45:36;15.10;99.90
47521;DHT22;32291;52.010;4.446;2022-09-12T04:46:45;15.10;99.90
47521;DHT22;32291;52.010;4.446;2022-09-12T04:47:48;15.00;99.90
47521;DHT22;32291;52.010;4.446;2022-09-12T04:48:50;15.00;99.90
47521;DHT22;32291;52.010;4.446;2022-09-12T04:49:54;15.00;99.90
47521;DHT22;32291;52.010;4.446;2022-09-12T04:51:21;15.00;99.90
47521;DHT22;32291;52.010;4.446;2022-09-12T04:52:31;14.90;99.90
47521;DHT22;32291;52.010;4.446;2022-09-12T04:53:33;15.00;99.90
47521;DHT22;32291;52.010;4.446;2022-09-12T04:54:44;14.90;99.90
47521;DHT22;32291;52.010;4.446;2022-09-12T04:55:49;14.90;99.90
47521;DHT22;32291;52.010;4.446;2022-09-12T04:56:55;14.90;99.90
47521;DHT22;32291;52.010;4.446;2022-09-12T04:58:00;14.90;99.90
47521;DHT22;32291;52.010;4.446;2022-09-12T04:59:03;14.90;99.90
47521;DHT22;32291;52.010;4.446;2022-09-12T05:00:11;14.90;99.90
47521;DHT22;32291;52.010;4.446;2022-09-12T05:01:20;14.80;99.90
47521;DHT22;32291;52.010;4.446;2022-09-12T05:02:24;15.80;99.90
47521;DHT22;32291;52.010;4.446;2022-09-12T05:03:28;14.80;99.90
47521;DHT22;32291;52.010;4.446;2022-09-12T05:04:31;14.80;99.90
47521;DHT22;32291;52.010;4.446;2022-09-12T05:05:35;14.80;99.90
47521;DHT22;32291;52.010;4.446;2022-09-12T05:06:38;14.80;99.90
47521;DHT22;32291;52.010;4.446;2022-09-12T05:07:43;14.80;99.90
47521;DHT22;32291;52.010;4.446;2022-09-12T05:08:48;14.80;99.90
47521;DHT22;32291;52.010;4.446;2022-09-12T05:09:56;14.70;99.90
47521;DHT22;32291;52.010;4.446;2022-09-12T05:11:05;14.70;99.90
47521;DHT22;32291;52.010;4.446;2022-09-12T05:12:36;14.70;99.90
47521;DHT22;32291;52.010;4.446;2022-09-12T05:13:39;14.70;99.90
47521;DHT22;32291;52.010;4.446;2022-09-12T05:14:42;14.60;99.90
47521;DHT22;32291;52.010;4.446;2022-09-12T05:15:56;14.70;99.90
47521;DHT22;32291;52.010;4.446;2022-09-12T05:17:03;14.60;99.90
47521;DHT22;32291;52.010;4.446;2022-09-12T05:18:06;14.60;99.90
47521;DHT22;32291;52.010;4.446;2022-09-12T05:19:10;14.60;99.90
47521;DHT22;32291;52.010;4.446;2022-09-12T05:20:14;14.60;99.90
47521;DHT22;32291;52.010;4.446;2022-09-12T05:21:23;14.60;99.90
47521;DHT22;32291;52.010;4.446;2022-09-12T05:22:27;14.70;99.90
47521;DHT22;32291;52.010;4.446;2022-09-12T05:23:30;14.50;99.90
47521;DHT22;32291;52.010;4.446;2022-09-12T05:24:34;14.50;99.90
47521;DHT22;32291;52.010;4.446;2022-09-12T05:25:38;14.50;99.90
47521;DHT22;32291;52.010;4.446;2022-09-12T05:26:42;14.50;99.90
47521;DHT22;32291;52.010;4.446;2022-09-12T05:27:44;14.50;99.90
47521;DHT22;32291;52.010;4.446;2022-09-12T05:28:48;14.50;99.90
47521;DHT22;32291;52.010;4.446;2022-09-12T05:29:52;14.50;99.90
47521;DHT22;32291;52.010;4.446;2022-09-12T05:31:08;14.50;99.90
47521;DHT22;32291;52.010;4.446;2022-09-12T05:32:16;14.50;99.90
47521;DHT22;32291;52.010;4.446;2022-09-12T05:33:21;14.50;99.90
47521;DHT22;32291;52.010;4.446;2022-09-12T05:34:23;14.50;99.90
47521;DHT22;32291;52.010;4.446;2022-09-12T05:35:28;14.50;99.90
47521;DHT22;32291;52.010;4.446;2022-09-12T05:36:32;14.50;99.90
47521;DHT22;32291;52.010;4.446;2022-09-12T05:37:37;14.50;99.90
47521;DHT22;32291;52.010;4.446;2022-09-12T05:38:44;14.50;99.90
47521;DHT22;32291;52.010;4.446;2022-09-12T05:39:47;14.50;99.90
47521;DHT22;32291;52.010;4.446;2022-09-12T05:40:49;14.50;99.90
47521;DHT22;32291;52.010;4.446;2022-09-12T05:41:52;14.50;99.90
47521;DHT22;32291;52.010;4.446;2022-09-12T05:43:00;14.50;99.90
47521;DHT22;32291;52.010;4.446;2022-09-12T05:44:05;14.50;99.90
47521;DHT22;32291;52.010;4.446;2022-09-12T05:45:13;14.50;99.90
47521;DHT22;32291;52.010;4.446;2022-09-12T05:46:19;14.50;99.90
47521;DHT22;32291;52.010;4.446;2022-09-12T05:47:26;14.50;99.90
47521;DHT22;32291;52.010;4.446;2022-09-12T05:48:29;14.50;99.90
47521;DHT22;32291;52.010;4.446;2022-09-12T05:49:32;14.50;99.90
47521;DHT22;32291;52.010;4.446;2022-09-12T05:50:37;14.50;99.90
47521;DHT22;32291;52.010;4.446;2022-09-12T05:51:42;14.80;99.90
47521;DHT22;32291;52.010;4.446;2022-09-12T05:52:46;14.50;99.90
47521;DHT22;32291;52.010;4.446;2022-09-12T05:53:52;14.50;99.90
47521;DHT22;32291;52.010;4.446;2022-09-12T05:54:59;14.60;99.90
47521;DHT22;32291;52.010;4.446;2022-09-12T05:56:15;14.50;99.90
47521;DHT22;32291;52.010;4.446;2022-09-12T05:57:21;14.50;99.90
47521;DHT22;32291;52.010;4.446;2022-09-12T05:58:23;14.50;99.90
47521;DHT22;32291;52.010;4.446;2022-09-12T05:59:27;14.50;99.90
47521;DHT22;32291;52.010;4.446;2022-09-12T06:00:29;14.50;99.90
47521;DHT22;32291;52.010;4.446;2022-09-12T06:01:33;14.50;99.90
47521;DHT22;32291;52.010;4.446;2022-09-12T06:02:36;14.60;99.90
47521;DHT22;32291;52.010;4.446;2022-09-12T06:03:45;14.60;99.90
47521;DHT22;32291;52.010;4.446;2022-09-12T06:04:51;14.60;99.90
47521;DHT22;32291;52.010;4.446;2022-09-12T06:05:53;14.60;99.90
47521;DHT22;32291;52.010;4.446;2022-09-12T06:07:00;14.60;99.90
47521;DHT22;32291;52.010;4.446;2022-09-12T06:08:02;14.60;99.90
47521;DHT22;32291;52.010;4.446;2022-09-12T06:09:05;14.60;99.90
47521;DHT22;32291;52.010;4.446;2022-09-12T06:10:13;14.60;99.90
47521;DHT22;32291;52.010;4.446;2022-09-12T06:11:21;14.60;99.90
47521;DHT22;32291;52.010;4.446;2022-09-12T06:12:29;14.60;99.90
47521;DHT22;32291;52.010;4.446;2022-09-12T06:13:33;14.60;99.90
47521;DHT22;32291;52.010;4.446;2022-09-12T06:14:43;14.60;99.90
47521;DHT22;32291;52.010;4.446;2022-09-12T06:15:46;14.70;99.90
47521;DHT22;32291;52.010;4.446;2022-09-12T06:16:49;14.70;99.90
47521;DHT22;32291;52.010;4.446;2022-09-12T06:17:51;14.70;99.90
47521;DHT22;32291;52.010;4.446;2022-09-12T06:18:56;14.70;99.90
47521;DHT22;32291;52.010;4.446;2022-09-12T06:20:02;14.70;99.90
47521;DHT22;32291;52.010;4.446;2022-09-12T06:21:07;14.80;99.90
47521;DHT22;32291;52.010;4.446;2022-09-12T06:22:13;14.80;99.90
47521;DHT22;32291;52.010;4.446;2022-09-12T06:23:16;14.80;99.90
47521;DHT22;32291;52.010;4.446;2022-09-12T06:24:20;14.90;99.90
47521;DHT22;32291;52.010;4.446;2022-09-12T06:25:22;14.90;99.90
47521;DHT22;32291;52.010;4.446;2022-09-12T06:26:26;15.00;99.90
47521;DHT22;32291;52.010;4.446;2022-09-12T06:27:31;15.00;99.90
47521;DHT22;32291;52.010;4.446;2022-09-12T06:28:39;15.10;99.90
47521;DHT22;32291;52.010;4.446;2022-09-12T06:29:43;15.10;99.90
47521;DHT22;32291;52.010;4.446;2022-09-12T06:30:45;14.30;99.90
47521;DHT22;32291;52.010;4.446;2022-09-12T06:31:49;15.20;99.90
47521;DHT22;32291;52.010;4.446;2022-09-12T06:32:52;15.20;99.90
47521;DHT22;32291;52.010;4.446;2022-09-12T06:34:02;15.20;99.90
47521;DHT22;32291;52.010;4.446;2022-09-12T06:35:08;15.30;99.90
47521;DHT22;32291;52.010;4.446;2022-09-12T06:36:13;15.30;99.90
47521;DHT22;32291;52.010;4.446;2022-09-12T06:37:18;15.40;99.90
47521;DHT22;32291;52.010;4.446;2022-09-12T06:38:21;15.40;99.90
47521;DHT22;32291;52.010;4.446;2022-09-12T06:39:25;15.40;99.90
47521;DHT22;32291;52.010;4.446;2022-09-12T06:40:28;15.50;99.90
47521;DHT22;32291;52.010;4.446;2022-09-12T06:41:32;15.50;99.90
47521;DHT22;32291;52.010;4.446;2022-09-12T06:42:34;15.60;99.90
47521;DHT22;32291;52.010;4.446;2022-09-12T06:43:38;15.60;99.90
47521;DHT22;32291;52.010;4.446;2022-09-12T06:44:43;15.70;99.90
47521;DHT22;32291;52.010;4.446;2022-09-12T06:45:49;15.70;99.90
47521;DHT22;32291;52.010;4.446;2022-09-12T06:46:52;15.70;99.90
47521;DHT22;32291;52.010;4.446;2022-09-12T06:47:54;15.70;99.90
47521;DHT22;32291;52.010;4.446;2022-09-12T06:48:58;15.80;99.90
47521;DHT22;32291;52.010;4.446;2022-09-12T06:50:02;15.80;99.90
47521;DHT22;32291;52.010;4.446;2022-09-12T06:51:09;15.80;99.90
47521;DHT22;32291;52.010;4.446;2022-09-12T06:52:15;15.80;99.90
47521;DHT22;32291;52.010;4.446;2022-09-12T06:53:18;15.90;99.90
47521;DHT22;32291;52.010;4.446;2022-09-12T06:54:22;16.00;99.90
47521;DHT22;32291;52.010;4.446;2022-09-12T06:55:26;16.00;99.90
47521;DHT22;32291;52.010;4.446;2022-09-12T06:56:30;16.00;99.90
47521;DHT22;32291;52.010;4.446;2022-09-12T06:57:33;16.00;99.90
47521;DHT22;32291;52.010;4.446;2022-09-12T06:58:37;16.70;99.90
47521;DHT22;32291;52.010;4.446;2022-09-12T06:59:41;16.10;99.90
47521;DHT22;32291;52.010;4.446;2022-09-12T07:00:47;16.10;99.90
47521;DHT22;32291;52.010;4.446;2022-09-12T07:01:50;16.20;99.90
47521;DHT22;32291;52.010;4.446;2022-09-12T07:02:56;16.30;99.90
47521;DHT22;32291;52.010;4.446;2022-09-12T07:04:00;16.30;99.90
47521;DHT22;32291;52.010;4.446;2022-09-12T07:05:05;16.30;99.90
47521;DHT22;32291;52.010;4.446;2022-09-12T07:06:15;16.40;99.90
47521;DHT22;32291;52.010;4.446;2022-09-12T07:07:21;16.40;99.90
47521;DHT22;32291;52.010;4.446;2022-09-12T07:08:24;16.40;99.90
47521;DHT22;32291;52.010;4.446;2022-09-12T07:09:27;16.50;99.90
47521;DHT22;32291;52.010;4.446;2022-09-12T07:10:31;16.40;99.90
47521;DHT22;32291;52.010;4.446;2022-09-12T07:11:35;16.50;99.90
47521;DHT22;32291;52.010;4.446;2022-09-12T07:12:40;16.50;99.90
47521;DHT22;32291;52.010;4.446;2022-09-12T07:13:45;16.50;99.90
47521;DHT22;32291;52.010;4.446;2022-09-12T07:14:51;16.50;99.90
47521;DHT22;32291;52.010;4.446;2022-09-12T07:15:54;16.50;99.90
47521;DHT22;32291;52.010;4.446;2022-09-12T07:16:56;16.50;99.90
47521;DHT22;32291;52.010;4.446;2022-09-12T07:17:58;16.60;99.90
47521;DHT22;32291;52.010;4.446;2022-09-12T07:19:04;16.70;99.90
47521;DHT22;32291;52.010;4.446;2022-09-12T07:20:12;16.60;99.90
47521;DHT22;32291;52.010;4.446;2022-09-12T07:21:14;16.60;99.90
47521;DHT22;32291;52.010;4.446;2022-09-12T07:22:17;16.70;99.90
47521;DHT22;32291;52.010;4.446;2022-09-12T07:23:19;16.70;99.90
47521;DHT22;32291;52.010;4.446;2022-09-12T07:24:22;16.70;99.90
47521;DHT22;32291;52.010;4.446;2022-09-12T07:25:24;16.80;99.90
47521;DHT22;32291;52.010;4.446;2022-09-12T07:26:28;16.80;99.90
47521;DHT22;32291;52.010;4.446;2022-09-12T07:27:30;16.80;99.90
47521;DHT22;32291;52.010;4.446;2022-09-12T07:28:33;16.90;99.90
47521;DHT22;32291;52.010;4.446;2022-09-12T07:29:37;17.00;99.90
47521;DHT22;32291;52.010;4.446;2022-09-12T07:30:39;17.00;99.90
47521;DHT22;32291;52.010;4.446;2022-09-12T07:31:41;17.10;99.90
47521;DHT22;32291;52.010;4.446;2022-09-12T07:32:44;17.20;99.90
47521;DHT22;32291;52.010;4.446;2022-09-12T07:33:47;17.20;99.90
47521;DHT22;32291;52.010;4.446;2022-09-12T07:34:52;17.20;99.90
47521;DHT22;32291;52.010;4.446;2022-09-12T07:36:00;17.30;99.90
47521;DHT22;32291;52.010;4.446;2022-09-12T07:37:05;17.40;99.90
47521;DHT22;32291;52.010;4.446;2022-09-12T07:38:08;17.50;99.90
47521;DHT22;32291;52.010;4.446;2022-09-12T07:39:13;17.60;99.90
47521;DHT22;32291;52.010;4.446;2022-09-12T07:40:16;17.70;99.90
47521;DHT22;32291;52.010;4.446;2022-09-12T07:41:26;17.70;99.90
47521;DHT22;32291;52.010;4.446;2022-09-12T07:42:32;17.80;99.90
47521;DHT22;32291;52.010;4.446;2022-09-12T07:43:34;17.90;99.90
47521;DHT22;32291;52.010;4.446;2022-09-12T07:44:37;17.90;99.90
47521;DHT22;32291;52.010;4.446;2022-09-12T07:45:43;18.00;99.90
47521;DHT22;32291;52.010;4.446;2022-09-12T07:46:45;18.00;99.90
47521;DHT22;32291;52.010;4.446;2022-09-12T07:47:51;17.30;99.90
47521;DHT22;32291;52.010;4.446;2022-09-12T07:48:57;18.20;99.90
47521;DHT22;32291;52.010;4.446;2022-09-12T07:50:01;18.30;99.90
47521;DHT22;32291;52.010;4.446;2022-09-12T07:51:08;18.40;99.90
47521;DHT22;32291;52.010;4.446;2022-09-12T07:52:12;18.50;99.90
47521;DHT22;32291;52.010;4.446;2022-09-12T07:53:15;18.60;99.90
47521;DHT22;32291;52.010;4.446;2022-09-12T07:54:17;18.60;99.90
47521;DHT22;32291;52.010;4.446;2022-09-12T07:55:21;18.70;99.90
47521;DHT22;32291;52.010;4.446;2022-09-12T07:56:24;18.80;99.90
47521;DHT22;32291;52.010;4.446;2022-09-12T07:57:28;18.90;99.90
47521;DHT22;32291;52.010;4.446;2022-09-12T07:58:33;19.00;99.90
47521;DHT22;32291;52.010;4.446;2022-09-12T07:59:37;19.10;99.90